createdAt,value
2023-02-27T00:03:48.977Z,61.01
2023-02-27T00:07:49.093Z,70.28
2023-02-27T00:11:48.999Z,72.84
2023-02-27T00:15:48.964Z,67.14
2023-02-27T00:19:48.862Z,77.66
2023-02-27T00:23:48.751Z,72.16
2023-02-27T00:27:48.659Z,82.24
2023-02-27T00:31:48.617Z,71.27
2023-02-27T00:35:48.443Z,67.04
2023-02-27T00:39:48.341Z,73.12
2023-02-27T00:43:48.252Z,83.44
2023-02-27T00:47:48.220Z,78.40
2023-02-27T00:51:48.158Z,81.02
2023-02-27T00:55:48.003Z,75.03
2023-02-27T00:59:47.969Z,73.02
2023-02-27T01:03:47.875Z,74.28
2023-02-27T01:07:47.754Z,75.54
2023-02-27T01:11:47.673Z,70.42
2023-02-27T01:15:47.562Z,76.54
2023-02-27T01:19:47.493Z,72.34
2023-02-27T01:23:47.360Z,76.15
2023-02-27T01:27:47.365Z,64.71
2023-02-27T01:31:47.547Z,73.94
2023-02-27T01:35:47.650Z,62.59
2023-02-27T01:39:47.724Z,67.46
2023-02-27T01:43:47.796Z,63.34
2023-02-27T01:47:47.686Z,63.80
2023-02-27T01:51:47.595Z,60.39
2023-02-27T01:55:47.532Z,68.66
2023-02-27T01:59:47.388Z,67.55
2023-02-27T02:03:47.289Z,60.13
2023-02-27T02:07:47.134Z,51.38
2023-02-27T02:11:47.097Z,73.77
2023-02-27T02:15:46.967Z,69.70
2023-02-27T02:19:46.843Z,71.79
2023-02-27T02:23:46.796Z,69.61
2023-02-27T02:27:46.934Z,61.42
2023-02-27T02:31:47.269Z,65.51
2023-02-27T02:35:47.203Z,60.17
2023-02-27T02:39:47.331Z,70.64
2023-02-27T02:43:47.406Z,63.43
2023-02-27T02:47:47.422Z,57.88
2023-02-27T02:51:47.428Z,65.60
2023-02-27T02:55:47.384Z,66.89
2023-02-27T02:59:47.456Z,63.83
2023-02-27T03:03:47.462Z,53.58
2023-02-27T03:07:47.751Z,37.71
2023-02-27T03:11:47.518Z,59.85
2023-02-27T03:15:47.501Z,55.72
2023-02-27T03:19:47.368Z,51.60
2023-02-27T03:23:47.263Z,28.81
2023-02-27T03:27:47.177Z,60.05
2023-02-27T03:31:47.199Z,50.50
2023-02-27T03:35:46.972Z,47.53
2023-02-27T03:39:46.857Z,38.23
2023-02-27T03:43:46.742Z,49.05
2023-02-27T03:47:46.642Z,54.14
2023-02-27T03:51:46.545Z,38.94
2023-02-27T03:55:46.416Z,39.50
2023-02-27T03:59:46.361Z,47.21
2023-02-27T04:03:46.224Z,28.99
2023-02-27T04:07:46.146Z,76.01
2023-02-27T04:11:46.030Z,84.89
2023-02-27T04:15:45.943Z,62.89
2023-02-27T04:19:45.855Z,45.23
2023-02-27T04:23:45.888Z,83.38
2023-02-27T04:27:45.809Z,73.85
2023-02-27T04:31:45.893Z,80.23
2023-02-27T04:35:45.635Z,69.43
2023-02-27T04:39:45.525Z,57.08
2023-02-27T04:43:45.448Z,51.57
2023-02-27T04:47:45.332Z,96.14
2023-02-27T04:51:45.347Z,88.81
2023-02-27T04:55:45.155Z,86.02
2023-02-27T04:59:45.021Z,103.15
2023-02-27T05:03:44.890Z,105.11
2023-02-27T05:07:44.824Z,91.75
2023-02-27T05:11:44.935Z,130.66
2023-02-27T05:15:45.009Z,116.42
2023-02-27T05:19:45.119Z,111.73
2023-02-27T05:23:45.223Z,110.06
2023-02-27T05:27:45.364Z,126.44
2023-02-27T05:31:45.512Z,104.02
2023-02-27T05:35:45.575Z,104.66
2023-02-27T05:39:45.638Z,95.79
2023-02-27T05:43:45.744Z,96.05
2023-02-27T05:47:45.851Z,120.32
2023-02-27T05:51:45.919Z,117.32
2023-02-27T05:55:45.982Z,120.16
2023-02-27T05:59:45.984Z,115.29
2023-02-27T06:03:45.990Z,99.66
2023-02-27T06:07:45.952Z,93.88
2023-02-27T06:11:46.005Z,93.65
2023-02-27T06:15:46.151Z,96.36
2023-02-27T06:19:46.277Z,90.96
2023-02-27T06:23:46.147Z,88.76
2023-02-27T06:27:46.107Z,102.71
2023-02-27T06:31:45.915Z,99.12
2023-02-27T06:35:45.876Z,182.65
2023-02-27T06:39:45.953Z,207.88
2023-02-27T06:43:45.570Z,226.19
2023-02-27T06:47:45.453Z,245.01
2023-02-27T06:51:45.527Z,250.00
2023-02-27T06:55:45.470Z,252.61
2023-02-27T06:59:45.471Z,223.27
2023-02-27T07:03:45.025Z,204.23
2023-02-27T07:07:45.133Z,190.37
2023-02-27T07:11:45.151Z,188.30
2023-02-27T07:15:45.259Z,189.93
2023-02-27T07:19:45.484Z,179.15
2023-02-27T07:23:45.347Z,177.48
2023-02-27T07:27:45.341Z,179.64
2023-02-27T07:31:45.504Z,177.65
2023-02-27T07:35:45.486Z,176.85
2023-02-27T07:39:45.433Z,174.12
2023-02-27T07:43:45.427Z,181.22
2023-02-27T07:47:46.070Z,203.05
2023-02-27T07:51:45.849Z,199.17
2023-02-27T07:55:45.538Z,205.16
2023-02-27T07:59:45.260Z,212.40
2023-02-27T08:03:45.182Z,225.88
2023-02-27T08:07:45.515Z,210.44
2023-02-27T08:11:46.773Z,202.05
2023-02-27T08:15:45.016Z,191.46
2023-02-27T08:19:44.991Z,183.14
2023-02-27T08:23:44.667Z,183.00
2023-02-27T08:27:44.565Z,180.31
2023-02-27T08:31:44.571Z,171.23
2023-02-27T08:35:44.299Z,168.54
2023-02-27T08:39:44.515Z,170.97
2023-02-27T08:43:44.511Z,178.40
2023-02-27T08:47:44.060Z,201.66
2023-02-27T08:51:43.757Z,250.27
2023-02-27T08:55:44.024Z,211.56
2023-02-27T08:59:43.446Z,238.36
2023-02-27T09:03:43.212Z,228.86
2023-02-27T09:07:43.093Z,243.79
2023-02-27T09:11:42.884Z,236.85
2023-02-27T09:15:42.772Z,236.12
2023-02-27T09:19:44.540Z,228.48
2023-02-27T09:23:42.484Z,239.77
2023-02-27T09:27:42.302Z,224.10
2023-02-27T09:31:42.208Z,216.55
2023-02-27T09:35:42.569Z,231.89
2023-02-27T09:39:44.035Z,237.38
2023-02-27T09:43:41.970Z,242.36
2023-02-27T09:47:42.028Z,230.96
2023-02-27T09:51:42.037Z,214.60
2023-02-27T09:55:41.540Z,212.63
2023-02-27T09:59:41.383Z,211.40
2023-02-27T10:03:41.591Z,202.31
2023-02-27T10:07:41.116Z,197.42
2023-02-27T10:11:40.910Z,199.11
2023-02-27T10:15:40.848Z,191.53
2023-02-27T10:19:40.655Z,194.23
2023-02-27T10:23:40.536Z,184.80
2023-02-27T10:27:40.409Z,185.19
2023-02-27T10:31:40.263Z,183.21
2023-02-27T10:35:40.553Z,220.13
2023-02-27T10:39:40.041Z,200.94
2023-02-27T10:43:40.108Z,211.13
2023-02-27T10:47:39.734Z,181.76
2023-02-27T10:51:39.547Z,180.27
2023-02-27T10:55:39.547Z,174.16
2023-02-27T10:59:39.545Z,177.78
2023-02-27T11:03:41.107Z,179.12
2023-02-27T11:07:38.906Z,173.59
2023-02-27T11:11:39.073Z,163.19
2023-02-27T11:15:38.723Z,193.63
2023-02-27T11:19:38.529Z,161.48
2023-02-27T11:23:38.371Z,166.05
2023-02-27T11:27:38.544Z,160.69
2023-02-27T11:31:38.212Z,156.24
2023-02-27T11:35:38.109Z,153.00
2023-02-27T11:39:37.942Z,159.00
2023-02-27T11:43:38.070Z,170.60
2023-02-27T11:47:37.838Z,159.86
2023-02-27T11:51:37.514Z,154.09
2023-02-27T11:55:37.586Z,151.19
2023-02-27T11:59:37.430Z,139.70
2023-02-27T12:03:37.632Z,147.56
2023-02-27T12:07:37.590Z,135.91
2023-02-27T12:11:37.637Z,137.65
2023-02-27T12:15:37.659Z,154.73
2023-02-27T12:19:37.598Z,159.87
2023-02-27T12:23:37.706Z,185.97
2023-02-27T12:27:37.613Z,157.37
2023-02-27T12:31:37.588Z,144.41
2023-02-27T12:35:37.317Z,145.71
2023-02-27T12:39:37.604Z,145.13
2023-02-27T12:43:37.049Z,138.58
2023-02-27T12:47:36.929Z,131.62
2023-02-27T12:51:36.765Z,118.39
2023-02-27T12:55:36.646Z,112.94
2023-02-27T12:59:36.585Z,98.78
2023-02-27T13:03:36.423Z,91.37
2023-02-27T13:07:36.261Z,84.54
2023-02-27T13:11:36.093Z,80.39
2023-02-27T13:15:36.083Z,82.71
2023-02-27T13:19:36.019Z,80.41
2023-02-27T13:23:35.976Z,78.68
2023-02-27T13:27:36.023Z,83.71
2023-02-27T13:31:36.052Z,82.80
2023-02-27T13:35:36.123Z,82.98
2023-02-27T13:39:36.110Z,81.49
2023-02-27T13:43:46.335Z,74.19
2023-02-27T13:47:36.966Z,71.52
2023-02-27T13:51:35.789Z,76.48
2023-02-27T13:55:35.634Z,73.66
2023-02-27T13:59:35.637Z,68.70
2023-02-27T14:03:35.667Z,67.25
2023-02-27T14:07:35.636Z,64.60
2023-02-27T14:11:35.621Z,60.68
2023-02-27T14:15:35.629Z,58.10
2023-02-27T14:19:35.562Z,66.48
2023-02-27T14:23:35.550Z,63.41
2023-02-27T14:27:35.499Z,53.85
2023-02-27T14:31:35.467Z,49.12
2023-02-27T14:35:35.338Z,50.12
2023-02-27T14:39:35.203Z,44.38
2023-02-27T14:43:35.155Z,44.54
2023-02-27T14:47:35.036Z,39.08
2023-02-27T14:51:34.998Z,40.72
2023-02-27T14:55:35.013Z,41.60
2023-02-27T14:59:34.958Z,40.51
2023-02-27T15:03:34.989Z,42.94
2023-02-27T15:07:34.960Z,40.84
2023-02-27T15:11:35.150Z,31.30
2023-02-27T15:15:35.223Z,33.99
2023-02-27T15:19:35.140Z,29.22
2023-02-27T15:23:34.999Z,31.72
2023-02-27T15:27:34.965Z,32.69
2023-02-27T15:31:35.027Z,33.51
2023-02-27T15:35:35.014Z,32.33
2023-02-27T15:39:35.002Z,27.64
2023-02-27T15:43:35.010Z,30.56
2023-02-27T15:47:34.994Z,34.17
2023-02-27T15:51:34.972Z,31.33
2023-02-27T15:55:34.982Z,30.48
2023-02-27T15:59:34.973Z,33.49
2023-02-27T16:03:35.019Z,29.80
2023-02-27T16:07:34.995Z,31.35
2023-02-27T16:11:35.161Z,35.72
2023-02-27T16:15:35.050Z,34.84
2023-02-27T16:19:35.040Z,35.27
2023-02-27T16:23:35.093Z,34.33
2023-02-27T16:27:35.113Z,32.59
2023-02-27T16:31:35.200Z,33.09
2023-02-27T16:35:35.326Z,33.29
2023-02-27T16:39:35.209Z,27.64
2023-02-27T16:43:35.215Z,27.55
2023-02-27T16:47:35.266Z,39.26
2023-02-27T16:51:35.298Z,39.52
2023-02-27T16:55:35.353Z,42.56
2023-02-27T16:59:35.415Z,36.70
2023-02-27T17:03:35.408Z,34.67
2023-02-27T17:07:35.428Z,28.44
2023-02-27T17:11:35.669Z,25.00
2023-02-27T17:15:35.536Z,46.50
2023-02-27T17:19:35.602Z,37.72
2023-02-27T17:23:35.699Z,32.48
2023-02-27T17:27:35.739Z,34.34
2023-02-27T17:31:35.829Z,28.13
2023-02-27T17:35:35.715Z,30.43
2023-02-27T17:39:35.528Z,33.97
2023-02-27T17:43:35.376Z,28.88
2023-02-27T17:47:35.217Z,32.61
2023-02-27T17:51:35.081Z,35.90
2023-02-27T17:55:34.924Z,35.20
2023-02-27T17:59:34.725Z,33.62
2023-02-27T18:03:34.566Z,38.67
2023-02-27T18:07:34.456Z,49.34
2023-02-27T18:11:34.277Z,71.13
2023-02-27T18:15:34.259Z,90.86
2023-02-27T18:19:34.048Z,111.24
2023-02-27T18:23:33.906Z,132.70
2023-02-27T18:27:33.807Z,147.10
2023-02-27T18:31:33.688Z,150.97
2023-02-27T18:35:33.797Z,186.60
2023-02-27T18:39:33.813Z,146.94
2023-02-27T18:43:33.889Z,139.63
2023-02-27T18:47:33.929Z,145.11
2023-02-27T18:51:33.982Z,184.08
2023-02-27T18:55:34.058Z,173.07
2023-02-27T18:59:34.113Z,195.23
2023-02-27T19:03:34.278Z,219.84
2023-02-27T19:07:34.279Z,227.69
2023-02-27T19:11:34.398Z,230.50
2023-02-27T19:15:34.525Z,249.05
2023-02-27T19:19:34.627Z,230.90
2023-02-27T19:23:34.541Z,239.06
2023-02-27T19:27:34.411Z,244.69
2023-02-27T19:31:34.446Z,228.06
2023-02-27T19:35:34.512Z,249.16
2023-02-27T19:39:34.608Z,239.41
2023-02-27T19:43:34.732Z,237.09
2023-02-27T19:47:34.898Z,244.83
2023-02-27T19:51:35.078Z,244.02
2023-02-27T19:55:35.202Z,243.16
2023-02-27T19:59:35.300Z,247.99
2023-02-27T20:03:35.684Z,233.28
2023-02-27T20:07:35.633Z,233.06
2023-02-27T20:11:35.770Z,232.82
2023-02-27T20:15:35.884Z,227.98
2023-02-27T20:19:36.041Z,216.47
2023-02-27T20:23:36.203Z,228.86
2023-02-27T20:27:36.396Z,217.84
2023-02-27T20:31:36.559Z,215.10
2023-02-27T20:35:36.703Z,204.31
2023-02-27T20:39:36.843Z,197.81
2023-02-27T20:43:36.992Z,198.68
2023-02-27T20:47:37.167Z,218.70
2023-02-27T20:51:37.339Z,201.32
2023-02-27T20:55:37.566Z,208.33
2023-02-27T20:59:37.693Z,196.10
2023-02-27T21:03:38.929Z,212.46
2023-02-27T21:07:37.540Z,190.30
2023-02-27T21:11:37.460Z,194.41
2023-02-27T21:15:37.438Z,197.23
2023-02-27T21:19:37.442Z,211.61
2023-02-27T21:23:37.383Z,181.07
2023-02-27T21:27:37.288Z,192.15
2023-02-27T21:31:37.287Z,194.17
2023-02-27T21:35:37.217Z,198.12
2023-02-27T21:39:37.079Z,193.77
2023-02-27T21:43:36.975Z,194.62
2023-02-27T21:47:36.904Z,189.68
2023-02-27T21:51:40.760Z,194.09
2023-02-27T21:55:36.816Z,169.55
2023-02-27T21:59:36.784Z,181.90
2023-02-27T22:03:36.617Z,180.50
2023-02-27T22:07:36.526Z,155.59
2023-02-27T22:11:36.590Z,142.42
2023-02-27T22:15:36.662Z,158.03
2023-02-27T22:19:36.745Z,143.56
2023-02-27T22:23:36.891Z,146.39
2023-02-27T22:27:37.020Z,149.18
2023-02-27T22:31:37.209Z,128.77
2023-02-27T22:35:37.116Z,130.50
2023-02-27T22:39:37.119Z,132.54
2023-02-27T22:43:37.192Z,120.47
2023-02-27T22:47:37.135Z,125.27
2023-02-27T22:51:37.080Z,120.91
2023-02-27T22:55:36.940Z,120.70
2023-02-27T22:59:36.883Z,113.42
2023-02-27T23:03:36.828Z,104.19
2023-02-27T23:07:36.712Z,103.77
2023-02-27T23:11:36.635Z,105.22
2023-02-27T23:15:36.534Z,110.69
2023-02-27T23:19:36.473Z,96.16
2023-02-27T23:23:36.824Z,99.79
2023-02-27T23:27:36.259Z,91.00
2023-02-27T23:31:36.636Z,88.18
2023-02-27T23:35:36.100Z,90.30
2023-02-27T23:39:36.001Z,91.63
2023-02-27T23:43:35.897Z,88.37
2023-02-27T23:47:35.819Z,91.22
2023-02-27T23:51:36.131Z,79.64
2023-02-27T23:55:35.623Z,80.31
2023-02-27T23:59:35.675Z,102.66
